PWSweather.com
Personal Weather Stations
Station Observations
WD4JKH
Forsyth, GA 31029

Forsyth, GA 31029

Lat: 33.033225, Lon: -83.927995

Elevation: 709

Station Type: Davis Vantage VUE

High Low Average
Temperature 68.3°F20.2°C 53.6°F12.0°C 58.4°F14.7°C
Dew Point 62.1°F16.7°C 51.6°F10.9°C 55.7°F13.2°C
Winds 16.3 mph 26.2 kmh Calm Calm 4.0 mph S6.4 kmh S
Wind Gusts 33.0 mph53.1 kmh 2.0 mph3.2 kmh 12.0 mph19.3 kmh
Humidity 99% 60% 92%
Pressure 30.08 in1018.6 mb 29.52 in999.7 mb -
Precipitation 0.95 in24.1 mm - -
Hour Temp Dew Point Humidity Winds Wind Gusts Pressure Precip Precip Rate Daily Precip Total
12:04 AM 54.3°F12.4°C 52.9°F11.6°C 95% 1.0 mph S1.6 kmh S 3.0 mph4.8 kmh 30.08 in1018.6 mb 0.00 in0.0 mm 0.00 in0.0 mm 0.00 in0.0 mm
12:09 AM 54.4°F12.4°C 53.0°F11.7°C 95% 1.5 mph SE2.4 kmh SE 4.0 mph6.4 kmh 30.08 in1018.6 mb 0.00 in0.0 mm 0.00 in0.0 mm 0.00 in0.0 mm
12:14 AM 54.4°F12.4°C 53.0°F11.7°C 95% 1.5 mph SE2.4 kmh SE 5.0 mph8.0 kmh 30.07 in1018.3 mb 0.00 in0.0 mm 0.00 in0.0 mm 0.00 in0.0 mm
12:19 AM 54.3°F12.4°C 53.1°F11.7°C 96% 1.1 mph S1.8 kmh S 5.0 mph8.0 kmh 30.07 in1018.3 mb 0.00 in0.0 mm 0.00 in0.0 mm 0.00 in0.0 mm
12:24 AM 54.4°F12.4°C 53.2°F11.8°C 96% 2.2 mph SE3.5 kmh SE 5.0 mph8.0 kmh 30.07 in1018.3 mb 0.00 in0.0 mm 0.00 in0.0 mm 0.00 in0.0 mm
12:29 AM 54.3°F12.4°C 53.1°F11.7°C 96% 1.4 mph ESE2.3 kmh ESE 4.0 mph6.4 kmh 30.06 in1017.9 mb 0.00 in0.0 mm 0.00 in0.0 mm 0.00 in0.0 mm
12:34 AM 54.3°F12.4°C 53.1°F11.7°C 96% 1.9 mph SE3.1 kmh SE 4.0 mph6.4 kmh 30.06 in1017.9 mb 0.00 in0.0 mm 0.00 in0.0 mm 0.00 in0.0 mm
12:39 AM 54.5°F12.5°C 53.3°F11.8°C 96% 2.1 mph SSE3.4 kmh SSE 4.0 mph6.4 kmh 30.06 in1017.9 mb 0.00 in0.0 mm 0.00 in0.0 mm 0.00 in0.0 mm
12:44 AM 54.5°F12.5°C 53.6°F12.0°C 97% 2.4 mph SE3.9 kmh SE 4.0 mph6.4 kmh 30.06 in1017.9 mb 0.00 in0.0 mm 0.00 in0.0 mm 0.00 in0.0 mm
12:49 AM 54.6°F12.6°C 53.7°F12.1°C 97% 1.8 mph SE2.9 kmh SE 6.0 mph9.7 kmh 30.06 in1017.9 mb 0.00 in0.0 mm 0.00 in0.0 mm 0.00 in0.0 mm
12:54 AM 54.5°F12.5°C 53.6°F12.0°C 97% 1.1 mph SE1.8 kmh SE 6.0 mph9.7 kmh 30.05 in1017.6 mb 0.00 in0.0 mm 0.00 in0.0 mm 0.00 in0.0 mm
12:59 AM 54.5°F12.5°C 53.7°F12.1°C 97% 1.7 mph SE2.7 kmh SE 6.0 mph9.7 kmh 30.05 in1017.6 mb 0.00 in0.0 mm 0.00 in0.0 mm 0.00 in0.0 mm
01:04 AM 54.4°F12.4°C 53.6°F12.0°C 97% 1.4 mph SE2.3 kmh SE 6.0 mph9.7 kmh 30.05 in1017.6 mb 0.00 in0.0 mm 0.00 in0.0 mm 0.00 in0.0 mm
01:09 AM 54.5°F12.5°C 53.6°F12.0°C 97% 2.6 mph SE4.2 kmh SE 4.0 mph6.4 kmh 30.05 in1017.6 mb 0.00 in0.0 mm 0.00 in0.0 mm 0.00 in0.0 mm
01:14 AM 54.4°F12.4°C 53.5°F11.9°C 97% 2.1 mph SE3.4 kmh SE 4.0 mph6.4 kmh 30.05 in1017.6 mb 0.00 in0.0 mm 0.00 in0.0 mm 0.00 in0.0 mm
01:19 AM 54.5°F12.5°C 53.6°F12.0°C 97% 1.7 mph SSE2.7 kmh SSE 6.0 mph9.7 kmh 30.04 in1017.3 mb 0.00 in0.0 mm 0.00 in0.0 mm 0.00 in0.0 mm
01:24 AM 54.5°F12.5°C 53.6°F12.0°C 97% 1.8 mph SE2.9 kmh SE 6.0 mph9.7 kmh 30.05 in1017.6 mb 0.00 in0.0 mm 0.00 in0.0 mm 0.00 in0.0 mm
01:28 AM 54.5°F12.5°C 53.6°F12.0°C 97% 1.2 mph SE1.9 kmh SE 6.0 mph9.7 kmh 30.05 in1017.6 mb 0.00 in0.0 mm 0.00 in0.0 mm 0.00 in0.0 mm
01:33 AM 54.5°F12.5°C 53.6°F12.0°C 97% Calm Calm 6.0 mph9.7 kmh 30.05 in1017.6 mb 0.00 in0.0 mm 0.00 in0.0 mm 0.00 in0.0 mm
01:38 AM 54.4°F12.4°C 53.5°F11.9°C 97% Calm Calm 4.0 mph6.4 kmh 30.05 in1017.6 mb 0.00 in0.0 mm 0.00 in0.0 mm 0.00 in0.0 mm
01:43 AM 54.4°F12.4°C 53.5°F11.9°C 97% 1.0 mph E1.6 kmh E 2.0 mph3.2 kmh 30.04 in1017.3 mb 0.00 in0.0 mm 0.00 in0.0 mm 0.00 in0.0 mm
01:48 AM 54.4°F12.4°C 53.5°F11.9°C 97% 1.0 mph E1.6 kmh E 2.0 mph3.2 kmh 30.04 in1017.3 mb 0.00 in0.0 mm 0.00 in0.0 mm 0.00 in0.0 mm
01:53 AM 54.3°F12.4°C 53.4°F11.9°C 97% 1.0 mph E1.6 kmh E 2.0 mph3.2 kmh 30.04 in1017.3 mb 0.00 in0.0 mm 0.00 in0.0 mm 0.00 in0.0 mm
01:58 AM 54.2°F12.3°C 53.3°F11.8°C 97% 1.2 mph E1.9 kmh E 2.0 mph3.2 kmh 30.03 in1016.9 mb 0.00 in0.0 mm 0.00 in0.0 mm 0.00 in0.0 mm
02:03 AM 54.2°F12.3°C 53.3°F11.8°C 97% 1.2 mph E1.9 kmh E 2.0 mph3.2 kmh 30.03 in1016.9 mb 0.00 in0.0 mm 0.00 in0.0 mm 0.00 in0.0 mm
02:08 AM 54.1°F12.3°C 53.2°F11.8°C 97% 2.3 mph ENE3.7 kmh ENE 4.0 mph6.4 kmh 30.03 in1016.9 mb 0.00 in0.0 mm 0.00 in0.0 mm 0.00 in0.0 mm
02:13 AM 54.1°F12.3°C 53.2°F11.8°C 97% 2.2 mph E3.5 kmh E 4.0 mph6.4 kmh 30.03 in1016.9 mb 0.00 in0.0 mm 0.00 in0.0 mm 0.00 in0.0 mm
02:18 AM 54.0°F12.2°C 53.1°F11.7°C 97% 1.5 mph E2.4 kmh E 4.0 mph6.4 kmh 30.03 in1016.9 mb 0.00 in0.0 mm 0.00 in0.0 mm 0.00 in0.0 mm
02:23 AM 54.0°F12.2°C 53.1°F11.7°C 97% 1.4 mph E2.3 kmh E 4.0 mph6.4 kmh 30.03 in1016.9 mb 0.00 in0.0 mm 0.00 in0.0 mm 0.00 in0.0 mm
02:28 AM 54.0°F12.2°C 53.1°F11.7°C 97% 2.6 mph E4.2 kmh E 4.0 mph6.4 kmh 30.03 in1016.9 mb 0.00 in0.0 mm 0.00 in0.0 mm 0.00 in0.0 mm
02:33 AM 53.9°F12.2°C 53.3°F11.8°C 98% 1.7 mph ENE2.7 kmh ENE 4.0 mph6.4 kmh 30.03 in1016.9 mb 0.00 in0.0 mm 0.00 in0.0 mm 0.00 in0.0 mm
02:38 AM 53.9°F12.2°C 53.3°F11.8°C 98% 1.8 mph E2.9 kmh E 4.0 mph6.4 kmh 30.03 in1016.9 mb 0.00 in0.0 mm 0.00 in0.0 mm 0.00 in0.0 mm
02:43 AM 53.8°F12.1°C 53.2°F11.8°C 98% 1.0 mph ESE1.6 kmh ESE 4.0 mph6.4 kmh 30.03 in1016.9 mb 0.00 in0.0 mm 0.00 in0.0 mm 0.00 in0.0 mm
02:48 AM 53.8°F12.1°C 53.2°F11.8°C 98% 1.1 mph E1.8 kmh E 3.0 mph4.8 kmh 30.03 in1016.9 mb 0.00 in0.0 mm 0.00 in0.0 mm 0.00 in0.0 mm
02:53 AM 53.8°F12.1°C 53.2°F11.8°C 98% 1.2 mph E1.9 kmh E 3.0 mph4.8 kmh 30.03 in1016.9 mb 0.00 in0.0 mm 0.00 in0.0 mm 0.00 in0.0 mm
02:58 AM 53.8°F12.1°C 53.2°F11.8°C 98% 1.0 mph E1.6 kmh E 2.0 mph3.2 kmh 30.03 in1016.9 mb 0.00 in0.0 mm 0.00 in0.0 mm 0.00 in0.0 mm
03:03 AM 53.8°F12.1°C 53.2°F11.8°C 98% 1.5 mph ENE2.4 kmh ENE 3.0 mph4.8 kmh 30.03 in1016.9 mb 0.00 in0.0 mm 0.00 in0.0 mm 0.00 in0.0 mm
03:08 AM 53.7°F12.1°C 53.1°F11.7°C 98% 1.4 mph E2.3 kmh E 3.0 mph4.8 kmh 30.03 in1016.9 mb 0.00 in0.0 mm 0.00 in0.0 mm 0.00 in0.0 mm
03:13 AM 53.7°F12.1°C 53.1°F11.7°C 98% 1.1 mph E1.8 kmh E 3.0 mph4.8 kmh 30.03 in1016.9 mb 0.00 in0.0 mm 0.00 in0.0 mm 0.00 in0.0 mm
03:18 AM 53.7°F12.1°C 53.1°F11.7°C 98% 1.4 mph ESE2.3 kmh ESE 3.0 mph4.8 kmh 30.03 in1016.9 mb 0.00 in0.0 mm 0.00 in0.0 mm 0.00 in0.0 mm
03:23 AM 53.7°F12.1°C 53.1°F11.7°C 98% 1.2 mph SE1.9 kmh SE 2.0 mph3.2 kmh 30.03 in1016.9 mb 0.00 in0.0 mm 0.00 in0.0 mm 0.00 in0.0 mm
03:28 AM 53.7°F12.1°C 53.1°F11.7°C 98% 1.9 mph SSE3.1 kmh SSE 3.0 mph4.8 kmh 30.03 in1016.9 mb 0.00 in0.0 mm 0.00 in0.0 mm 0.00 in0.0 mm
03:33 AM 53.7°F12.1°C 53.1°F11.7°C 98% 1.0 mph SE1.6 kmh SE 3.0 mph4.8 kmh 30.03 in1016.9 mb 0.00 in0.0 mm 0.00 in0.0 mm 0.00 in0.0 mm
03:38 AM 53.7°F12.1°C 53.1°F11.7°C 98% 1.4 mph SSE2.3 kmh SSE 3.0 mph4.8 kmh 30.02 in1016.6 mb 0.00 in0.0 mm 0.00 in0.0 mm 0.00 in0.0 mm
03:43 AM 53.7°F12.1°C 53.1°F11.7°C 98% 1.6 mph E2.6 kmh E 4.0 mph6.4 kmh 30.02 in1016.6 mb 0.00 in0.0 mm 0.00 in0.0 mm 0.00 in0.0 mm
03:48 AM 53.7°F12.1°C 53.1°F11.7°C 98% 1.0 mph SE1.6 kmh SE 4.0 mph6.4 kmh 30.02 in1016.6 mb 0.00 in0.0 mm 0.00 in0.0 mm 0.00 in0.0 mm
03:53 AM 53.7°F12.1°C 53.1°F11.7°C 98% 1.1 mph E1.8 kmh E 4.0 mph6.4 kmh 30.02 in1016.6 mb 0.00 in0.0 mm 0.00 in0.0 mm 0.00 in0.0 mm
03:58 AM 53.7°F12.1°C 53.1°F11.7°C 98% 1.4 mph E2.3 kmh E 4.0 mph6.4 kmh 30.02 in1016.6 mb 0.00 in0.0 mm 0.00 in0.0 mm 0.00 in0.0 mm
04:03 AM 53.7°F12.1°C 53.1°F11.7°C 98% 1.0 mph E1.6 kmh E 3.0 mph4.8 kmh 30.02 in1016.6 mb 0.00 in0.0 mm 0.00 in0.0 mm 0.00 in0.0 mm
04:08 AM 53.7°F12.1°C 53.1°F11.7°C 98% 1.0 mph ESE1.6 kmh ESE 3.0 mph4.8 kmh 30.01 in1016.3 mb 0.00 in0.0 mm 0.00 in0.0 mm 0.00 in0.0 mm
04:13 AM 53.6°F12.0°C 53.0°F11.7°C 98% 1.0 mph SE1.6 kmh SE 3.0 mph4.8 kmh 30.01 in1016.3 mb 0.00 in0.0 mm 0.00 in0.0 mm 0.00 in0.0 mm
04:18 AM 53.6°F12.0°C 53.0°F11.7°C 98% 1.1 mph E1.8 kmh E 2.0 mph3.2 kmh 30.01 in1016.3 mb 0.00 in0.0 mm 0.00 in0.0 mm 0.00 in0.0 mm
04:23 AM 53.6°F12.0°C 53.0°F11.7°C 98% 1.0 mph ENE1.6 kmh ENE 3.0 mph4.8 kmh 30.01 in1016.3 mb 0.00 in0.0 mm 0.00 in0.0 mm 0.00 in0.0 mm
04:28 AM 53.6°F12.0°C 53.0°F11.7°C 98% 1.2 mph ENE1.9 kmh ENE 3.0 mph4.8 kmh 30.00 in1015.9 mb 0.00 in0.0 mm 0.00 in0.0 mm 0.00 in0.0 mm
04:33 AM 53.6°F12.0°C 53.0°F11.7°C 98% 1.0 mph SE1.6 kmh SE 3.0 mph4.8 kmh 30.01 in1016.3 mb 0.00 in0.0 mm 0.00 in0.0 mm 0.00 in0.0 mm
04:38 AM 53.6°F12.0°C 53.0°F11.7°C 98% Calm Calm 2.0 mph3.2 kmh 30.01 in1016.3 mb 0.00 in0.0 mm 0.00 in0.0 mm 0.00 in0.0 mm
04:43 AM 53.6°F12.0°C 53.0°F11.7°C 98% 1.2 mph SE1.9 kmh SE 2.0 mph3.2 kmh 30.01 in1016.3 mb 0.00 in0.0 mm 0.00 in0.0 mm 0.00 in0.0 mm
04:48 AM 53.6°F12.0°C 53.0°F11.7°C 98% 1.5 mph ESE2.4 kmh ESE 2.0 mph3.2 kmh 30.00 in1015.9 mb 0.00 in0.0 mm 0.00 in0.0 mm 0.00 in0.0 mm
04:53 AM 53.6°F12.0°C 53.0°F11.7°C 98% 1.0 mph SE1.6 kmh SE 2.0 mph3.2 kmh 30.00 in1015.9 mb 0.00 in0.0 mm 0.00 in0.0 mm 0.00 in0.0 mm
04:58 AM 53.6°F12.0°C 53.0°F11.7°C 98% 1.7 mph SE2.7 kmh SE 3.0 mph4.8 kmh 30.00 in1015.9 mb 0.00 in0.0 mm 0.00 in0.0 mm 0.00 in0.0 mm
05:03 AM 53.6°F12.0°C 53.0°F11.7°C 98% 1.3 mph SE2.1 kmh SE 3.0 mph4.8 kmh 30.00 in1015.9 mb 0.00 in0.0 mm 0.00 in0.0 mm 0.00 in0.0 mm
05:08 AM 53.7°F12.1°C 53.1°F11.7°C 98% 1.3 mph SE2.1 kmh SE 3.0 mph4.8 kmh 29.99 in1015.6 mb 0.00 in0.0 mm 0.00 in0.0 mm 0.00 in0.0 mm
05:13 AM 53.7°F12.1°C 53.1°F11.7°C 98% 1.0 mph ESE1.6 kmh ESE 3.0 mph4.8 kmh 29.98 in1015.2 mb 0.00 in0.0 mm 0.00 in0.0 mm 0.00 in0.0 mm
05:18 AM 53.7°F12.1°C 53.1°F11.7°C 98% 1.4 mph ESE2.3 kmh ESE 3.0 mph4.8 kmh 29.98 in1015.2 mb 0.00 in0.0 mm 0.00 in0.0 mm 0.00 in0.0 mm
05:23 AM 53.7°F12.1°C 53.1°F11.7°C 98% 2.1 mph ESE3.4 kmh ESE 4.0 mph6.4 kmh 29.98 in1015.2 mb 0.00 in0.0 mm 0.00 in0.0 mm 0.00 in0.0 mm
05:28 AM 53.7°F12.1°C 53.1°F11.7°C 98% 1.8 mph ESE2.9 kmh ESE 4.0 mph6.4 kmh 29.97 in1014.9 mb 0.00 in0.0 mm 0.00 in0.0 mm 0.00 in0.0 mm
05:33 AM 53.8°F12.1°C 53.2°F11.8°C 98% 2.1 mph ESE3.4 kmh ESE 4.0 mph6.4 kmh 29.96 in1014.6 mb 0.00 in0.0 mm 0.00 in0.0 mm 0.00 in0.0 mm
05:38 AM 53.8°F12.1°C 53.2°F11.8°C 98% 2.2 mph SE3.5 kmh SE 5.0 mph8.0 kmh 29.96 in1014.6 mb 0.00 in0.0 mm 0.00 in0.0 mm 0.00 in0.0 mm
05:43 AM 53.9°F12.2°C 53.3°F11.8°C 98% 2.8 mph SE4.5 kmh SE 7.0 mph11.3 kmh 29.96 in1014.6 mb 0.00 in0.0 mm 0.00 in0.0 mm 0.00 in0.0 mm
05:48 AM 54.0°F12.2°C 53.4°F11.9°C 98% 3.1 mph SE5.0 kmh SE 7.0 mph11.3 kmh 29.96 in1014.6 mb 0.00 in0.0 mm 0.00 in0.0 mm 0.00 in0.0 mm
05:53 AM 54.1°F12.3°C 53.5°F11.9°C 98% 2.4 mph SE3.9 kmh SE 7.0 mph11.3 kmh 29.97 in1014.9 mb 0.00 in0.0 mm 0.00 in0.0 mm 0.00 in0.0 mm
05:58 AM 54.1°F12.3°C 53.5°F11.9°C 98% 1.9 mph SE3.1 kmh SE 7.0 mph11.3 kmh 29.96 in1014.6 mb 0.00 in0.0 mm 0.00 in0.0 mm 0.00 in0.0 mm
06:03 AM 54.2°F12.3°C 53.6°F12.0°C 98% 2.5 mph SE4.0 kmh SE 6.0 mph9.7 kmh 29.95 in1014.2 mb 0.00 in0.0 mm 0.00 in0.0 mm 0.00 in0.0 mm
06:08 AM 54.3°F12.4°C 53.7°F12.1°C 98% 3.0 mph SE4.8 kmh SE 6.0 mph9.7 kmh 29.95 in1014.2 mb 0.00 in0.0 mm 0.00 in0.0 mm 0.00 in0.0 mm
06:13 AM 54.4°F12.4°C 53.8°F12.1°C 98% 2.1 mph SE3.4 kmh SE 6.0 mph9.7 kmh 29.95 in1014.2 mb 0.00 in0.0 mm 0.00 in0.0 mm 0.00 in0.0 mm
06:18 AM 54.5°F12.5°C 53.9°F12.2°C 98% 1.7 mph SE2.7 kmh SE 8.0 mph12.9 kmh 29.95 in1014.2 mb 0.00 in0.0 mm 0.00 in0.0 mm 0.00 in0.0 mm
06:23 AM 54.6°F12.6°C 54.0°F12.2°C 98% 2.0 mph SE3.2 kmh SE 8.0 mph12.9 kmh 29.95 in1014.2 mb 0.00 in0.0 mm 0.00 in0.0 mm 0.00 in0.0 mm
06:27 AM 54.8°F12.7°C 54.2°F12.3°C 98% 1.8 mph SE2.9 kmh SE 8.0 mph12.9 kmh 29.94 in1013.9 mb 0.00 in0.0 mm 0.00 in0.0 mm 0.00 in0.0 mm
06:32 AM 54.9°F12.7°C 54.3°F12.4°C 98% 1.2 mph SE1.9 kmh SE 8.0 mph12.9 kmh 29.94 in1013.9 mb 0.00 in0.0 mm 0.00 in0.0 mm 0.00 in0.0 mm
06:37 AM 55.1°F12.8°C 54.5°F12.5°C 98% 2.8 mph SE4.5 kmh SE 6.0 mph9.7 kmh 29.94 in1013.9 mb 0.00 in0.0 mm 0.00 in0.0 mm 0.00 in0.0 mm
06:42 AM 55.2°F12.9°C 54.6°F12.6°C 98% 3.1 mph SSE5.0 kmh SSE 6.0 mph9.7 kmh 29.95 in1014.2 mb 0.00 in0.0 mm 0.00 in0.0 mm 0.00 in0.0 mm
06:47 AM 55.3°F12.9°C 54.7°F12.6°C 98% 3.0 mph SE4.8 kmh SE 7.0 mph11.3 kmh 29.95 in1014.2 mb 0.00 in0.0 mm 0.00 in0.0 mm 0.00 in0.0 mm
06:52 AM 55.4°F13.0°C 54.8°F12.7°C 98% 2.5 mph SE4.0 kmh SE 7.0 mph11.3 kmh 29.94 in1013.9 mb 0.00 in0.0 mm 0.00 in0.0 mm 0.00 in0.0 mm
06:57 AM 55.4°F13.0°C 54.8°F12.7°C 98% 3.6 mph SE5.8 kmh SE 7.0 mph11.3 kmh 29.94 in1013.9 mb 0.00 in0.0 mm 0.00 in0.0 mm 0.00 in0.0 mm
07:02 AM 55.5°F13.1°C 54.9°F12.7°C 98% 1.5 mph SSE2.4 kmh SSE 7.0 mph11.3 kmh 29.95 in1014.2 mb 0.00 in0.0 mm 0.00 in0.0 mm 0.00 in0.0 mm
07:07 AM 55.5°F13.1°C 54.9°F12.7°C 98% 2.4 mph S3.9 kmh S 7.0 mph11.3 kmh 29.95 in1014.2 mb 0.00 in0.0 mm 0.00 in0.0 mm 0.00 in0.0 mm
07:12 AM 55.5°F13.1°C 54.9°F12.7°C 98% 1.9 mph S3.1 kmh S 7.0 mph11.3 kmh 29.94 in1013.9 mb 0.00 in0.0 mm 0.00 in0.0 mm 0.00 in0.0 mm
07:17 AM 55.5°F13.1°C 54.9°F12.7°C 98% 1.6 mph SSE2.6 kmh SSE 7.0 mph11.3 kmh 29.94 in1013.9 mb 0.00 in0.0 mm 0.00 in0.0 mm 0.00 in0.0 mm
07:22 AM 55.5°F13.1°C 54.9°F12.7°C 98% 1.7 mph SSE2.7 kmh SSE 7.0 mph11.3 kmh 29.94 in1013.9 mb 0.00 in0.0 mm 0.00 in0.0 mm 0.00 in0.0 mm
07:27 AM 55.6°F13.1°C 55.0°F12.8°C 98% 2.9 mph SSE4.7 kmh SSE 7.0 mph11.3 kmh 29.95 in1014.2 mb 0.00 in0.0 mm 0.00 in0.0 mm 0.00 in0.0 mm
07:32 AM 55.6°F13.1°C 55.0°F12.8°C 98% 2.6 mph SSE4.2 kmh SSE 7.0 mph11.3 kmh 29.94 in1013.9 mb 0.00 in0.0 mm 0.00 in0.0 mm 0.00 in0.0 mm
07:37 AM 55.6°F13.1°C 55.0°F12.8°C 98% 1.6 mph SSE2.6 kmh SSE 7.0 mph11.3 kmh 29.94 in1013.9 mb 0.00 in0.0 mm 0.00 in0.0 mm 0.00 in0.0 mm
07:42 AM 55.6°F13.1°C 55.0°F12.8°C 98% 1.4 mph SE2.3 kmh SE 7.0 mph11.3 kmh 29.94 in1013.9 mb 0.00 in0.0 mm 0.00 in0.0 mm 0.00 in0.0 mm
07:47 AM 55.6°F13.1°C 55.0°F12.8°C 98% 1.2 mph S1.9 kmh S 5.0 mph8.0 kmh 29.95 in1014.2 mb 0.00 in0.0 mm 0.00 in0.0 mm 0.00 in0.0 mm
07:52 AM 55.7°F13.2°C 55.1°F12.8°C 98% 1.4 mph SSE2.3 kmh SSE 4.0 mph6.4 kmh 29.95 in1014.2 mb 0.00 in0.0 mm 0.00 in0.0 mm 0.00 in0.0 mm
07:57 AM 55.7°F13.2°C 55.1°F12.8°C 98% 2.6 mph SE4.2 kmh SE 5.0 mph8.0 kmh 29.95 in1014.2 mb 0.00 in0.0 mm 0.00 in0.0 mm 0.00 in0.0 mm
08:02 AM 55.7°F13.2°C 55.1°F12.8°C 98% 1.2 mph SSE1.9 kmh SSE 5.0 mph8.0 kmh 29.95 in1014.2 mb 0.00 in0.0 mm 0.00 in0.0 mm 0.00 in0.0 mm
08:07 AM 55.8°F13.2°C 55.2°F12.9°C 98% 2.1 mph SE3.4 kmh SE 5.0 mph8.0 kmh 29.95 in1014.2 mb 0.00 in0.0 mm 0.00 in0.0 mm 0.00 in0.0 mm
08:12 AM 55.8°F13.2°C 55.2°F12.9°C 98% 1.9 mph SSE3.1 kmh SSE 5.0 mph8.0 kmh 29.95 in1014.2 mb 0.00 in0.0 mm 0.00 in0.0 mm 0.00 in0.0 mm
08:17 AM 55.8°F13.2°C 55.2°F12.9°C 98% 2.3 mph SSE3.7 kmh SSE 5.0 mph8.0 kmh 29.95 in1014.2 mb 0.00 in0.0 mm 0.00 in0.0 mm 0.00 in0.0 mm
08:22 AM 55.8°F13.2°C 55.2°F12.9°C 98% 3.7 mph SE6.0 kmh SE 7.0 mph11.3 kmh 29.95 in1014.2 mb 0.00 in0.0 mm 0.00 in0.0 mm 0.00 in0.0 mm
08:27 AM 55.9°F13.3°C 55.3°F12.9°C 98% 2.3 mph SE3.7 kmh SE 7.0 mph11.3 kmh 29.95 in1014.2 mb 0.00 in0.0 mm 0.00 in0.0 mm 0.00 in0.0 mm
08:32 AM 55.9°F13.3°C 55.3°F12.9°C 98% 2.5 mph SE4.0 kmh SE 7.0 mph11.3 kmh 29.95 in1014.2 mb 0.00 in0.0 mm 0.00 in0.0 mm 0.00 in0.0 mm
08:37 AM 55.9°F13.3°C 55.3°F12.9°C 98% 2.6 mph SE4.2 kmh SE 7.0 mph11.3 kmh 29.95 in1014.2 mb 0.00 in0.0 mm 0.00 in0.0 mm 0.00 in0.0 mm
08:42 AM 56.0°F13.3°C 55.4°F13.0°C 98% 1.9 mph SSE3.1 kmh SSE 6.0 mph9.7 kmh 29.95 in1014.2 mb 0.00 in0.0 mm 0.00 in0.0 mm 0.00 in0.0 mm
08:47 AM 56.1°F13.4°C 55.5°F13.1°C 98% 3.2 mph SSE5.1 kmh SSE 6.0 mph9.7 kmh 29.95 in1014.2 mb 0.00 in0.0 mm 0.00 in0.0 mm 0.00 in0.0 mm
08:52 AM 56.1°F13.4°C 55.5°F13.1°C 98% 4.6 mph SSE7.4 kmh SSE 10.0 mph16.1 kmh 29.95 in1014.2 mb 0.00 in0.0 mm 0.00 in0.0 mm 0.00 in0.0 mm
08:57 AM 56.1°F13.4°C 55.5°F13.1°C 98% 3.3 mph SE5.3 kmh SE 10.0 mph16.1 kmh 29.95 in1014.2 mb 0.00 in0.0 mm 0.00 in0.0 mm 0.00 in0.0 mm
09:02 AM 56.2°F13.4°C 55.6°F13.1°C 98% 3.1 mph SSE5.0 kmh SSE 10.0 mph16.1 kmh 29.95 in1014.2 mb 0.00 in0.0 mm 0.00 in0.0 mm 0.00 in0.0 mm
09:07 AM 56.2°F13.4°C 55.6°F13.1°C 98% 1.3 mph SSE2.1 kmh SSE 10.0 mph16.1 kmh 29.95 in1014.2 mb 0.00 in0.0 mm 0.00 in0.0 mm 0.00 in0.0 mm
09:12 AM 56.3°F13.5°C 55.7°F13.2°C 98% 2.9 mph SSE4.7 kmh SSE 7.0 mph11.3 kmh 29.94 in1013.9 mb 0.00 in0.0 mm 0.00 in0.0 mm 0.00 in0.0 mm
09:17 AM 56.4°F13.6°C 55.8°F13.2°C 98% 3.3 mph SE5.3 kmh SE 7.0 mph11.3 kmh 29.94 in1013.9 mb 0.00 in0.0 mm 0.00 in0.0 mm 0.00 in0.0 mm
09:22 AM 56.5°F13.6°C 55.9°F13.3°C 98% 3.0 mph SE4.8 kmh SE 7.0 mph11.3 kmh 29.93 in1013.5 mb 0.00 in0.0 mm 0.00 in0.0 mm 0.00 in0.0 mm
09:27 AM 56.7°F13.7°C 56.1°F13.4°C 98% 3.3 mph SSE5.3 kmh SSE 7.0 mph11.3 kmh 29.93 in1013.5 mb 0.00 in0.0 mm 0.00 in0.0 mm 0.00 in0.0 mm
09:32 AM 56.8°F13.8°C 56.2°F13.4°C 98% 2.4 mph SSE3.9 kmh SSE 9.0 mph14.5 kmh 29.93 in1013.5 mb 0.00 in0.0 mm 0.00 in0.0 mm 0.00 in0.0 mm
09:37 AM 57.0°F13.9°C 56.4°F13.6°C 98% 3.5 mph SSE5.6 kmh SSE 9.0 mph14.5 kmh 29.94 in1013.9 mb 0.00 in0.0 mm 0.00 in0.0 mm 0.00 in0.0 mm
09:42 AM 57.0°F13.9°C 56.4°F13.6°C 98% 2.9 mph SE4.7 kmh SE 9.0 mph14.5 kmh 29.93 in1013.5 mb 0.00 in0.0 mm 0.00 in0.0 mm 0.00 in0.0 mm
09:47 AM 57.1°F13.9°C 56.5°F13.6°C 98% 2.7 mph SSE4.3 kmh SSE 7.0 mph11.3 kmh 29.93 in1013.5 mb 0.00 in0.0 mm 0.00 in0.0 mm 0.00 in0.0 mm
09:52 AM 57.2°F14.0°C 56.6°F13.7°C 98% 2.8 mph SE4.5 kmh SE 8.0 mph12.9 kmh 29.93 in1013.5 mb 0.01 in0.3 mm 0.12 in3.0 mm 0.01 in0.3 mm
09:57 AM 57.3°F14.1°C 56.7°F13.7°C 98% 4.8 mph SSE7.7 kmh SSE 8.0 mph12.9 kmh 29.93 in1013.5 mb 0.01 in0.3 mm 0.00 in0.0 mm 0.01 in0.3 mm
10:02 AM 57.5°F14.2°C 56.9°F13.8°C 98% 2.8 mph SSE4.5 kmh SSE 8.0 mph12.9 kmh 29.93 in1013.5 mb 0.01 in0.3 mm 0.00 in0.0 mm 0.01 in0.3 mm
10:07 AM 57.6°F14.2°C 57.0°F13.9°C 98% 5.6 mph SE9.0 kmh SE 10.0 mph16.1 kmh 29.93 in1013.5 mb 0.01 in0.3 mm 0.00 in0.0 mm 0.01 in0.3 mm
10:12 AM 57.8°F14.3°C 57.2°F14.0°C 98% 3.1 mph SSE5.0 kmh SSE 14.0 mph22.5 kmh 29.93 in1013.5 mb 0.01 in0.3 mm 0.00 in0.0 mm 0.01 in0.3 mm
10:17 AM 58.0°F14.4°C 57.4°F14.1°C 98% 3.3 mph SSE5.3 kmh SSE 14.0 mph22.5 kmh 29.92 in1013.2 mb 0.01 in0.3 mm 0.00 in0.0 mm 0.01 in0.3 mm
10:22 AM 58.1°F14.5°C 57.5°F14.2°C 98% 4.6 mph SSE7.4 kmh SSE 14.0 mph22.5 kmh 29.92 in1013.2 mb 0.01 in0.3 mm 0.00 in0.0 mm 0.01 in0.3 mm
10:27 AM 58.2°F14.6°C 57.6°F14.2°C 98% 5.5 mph SE8.9 kmh SE 12.0 mph19.3 kmh 29.92 in1013.2 mb 0.01 in0.3 mm 0.00 in0.0 mm 0.01 in0.3 mm
10:32 AM 58.3°F14.6°C 57.7°F14.3°C 98% 3.5 mph SSE5.6 kmh SSE 12.0 mph19.3 kmh 29.92 in1013.2 mb 0.01 in0.3 mm 0.00 in0.0 mm 0.01 in0.3 mm
10:37 AM 58.4°F14.7°C 57.8°F14.3°C 98% 3.7 mph S6.0 kmh S 17.0 mph27.4 kmh 29.93 in1013.5 mb 0.01 in0.3 mm 0.00 in0.0 mm 0.01 in0.3 mm
10:42 AM 58.4°F14.7°C 58.1°F14.5°C 99% 3.6 mph SSE5.8 kmh SSE 17.0 mph27.4 kmh 29.92 in1013.2 mb 0.01 in0.3 mm 0.00 in0.0 mm 0.01 in0.3 mm
10:47 AM 58.5°F14.7°C 58.2°F14.6°C 99% 3.4 mph SSE5.5 kmh SSE 17.0 mph27.4 kmh 29.92 in1013.2 mb 0.01 in0.3 mm 0.00 in0.0 mm 0.01 in0.3 mm
10:52 AM 58.5°F14.7°C 57.9°F14.4°C 98% 5.0 mph S8.0 kmh S 11.0 mph17.7 kmh 29.92 in1013.2 mb 0.00 in0.0 mm 0.00 in0.0 mm 0.01 in0.3 mm
10:57 AM 58.6°F14.8°C 58.3°F14.6°C 99% 3.9 mph SSE6.3 kmh SSE 10.0 mph16.1 kmh 29.93 in1013.5 mb 0.00 in0.0 mm 0.00 in0.0 mm 0.01 in0.3 mm
11:02 AM 58.8°F14.9°C 58.5°F14.7°C 99% 3.3 mph S5.3 kmh S 10.0 mph16.1 kmh 29.93 in1013.5 mb 0.00 in0.0 mm 0.00 in0.0 mm 0.01 in0.3 mm
11:07 AM 58.9°F14.9°C 58.6°F14.8°C 99% 4.0 mph S6.4 kmh S 11.0 mph17.7 kmh 29.92 in1013.2 mb 0.00 in0.0 mm 0.00 in0.0 mm 0.01 in0.3 mm
11:12 AM 59.0°F15.0°C 58.7°F14.8°C 99% 4.9 mph S7.9 kmh S 11.0 mph17.7 kmh 29.92 in1013.2 mb 0.00 in0.0 mm 0.00 in0.0 mm 0.01 in0.3 mm
11:17 AM 59.1°F15.1°C 58.8°F14.9°C 99% 5.5 mph S8.9 kmh S 12.0 mph19.3 kmh 29.92 in1013.2 mb 0.00 in0.0 mm 0.00 in0.0 mm 0.01 in0.3 mm
11:22 AM 59.2°F15.1°C 58.9°F14.9°C 99% 5.2 mph S8.4 kmh S 14.0 mph22.5 kmh 29.91 in1012.9 mb 0.00 in0.0 mm 0.00 in0.0 mm 0.01 in0.3 mm
11:26 AM 59.2°F15.1°C 58.9°F14.9°C 99% 2.4 mph S3.9 kmh S 14.0 mph22.5 kmh 29.91 in1012.9 mb 0.00 in0.0 mm 0.00 in0.0 mm 0.01 in0.3 mm
11:31 AM 59.3°F15.2°C 59.0°F15.0°C 99% 5.7 mph SSE9.2 kmh SSE 15.0 mph24.1 kmh 29.91 in1012.9 mb 0.00 in0.0 mm 0.00 in0.0 mm 0.01 in0.3 mm
11:36 AM 59.4°F15.2°C 59.1°F15.1°C 99% 3.4 mph S5.5 kmh S 15.0 mph24.1 kmh 29.90 in1012.5 mb 0.00 in0.0 mm 0.00 in0.0 mm 0.01 in0.3 mm
11:41 AM 59.5°F15.3°C 59.2°F15.1°C 99% 3.7 mph SSE6.0 kmh SSE 15.0 mph24.1 kmh 29.89 in1012.2 mb 0.00 in0.0 mm 0.00 in0.0 mm 0.01 in0.3 mm
11:46 AM 59.6°F15.3°C 59.3°F15.2°C 99% 3.7 mph S6.0 kmh S 15.0 mph24.1 kmh 29.89 in1012.2 mb 0.00 in0.0 mm 0.00 in0.0 mm 0.01 in0.3 mm
11:51 AM 59.6°F15.3°C 59.3°F15.2°C 99% 5.2 mph S8.4 kmh S 11.0 mph17.7 kmh 29.88 in1011.9 mb 0.00 in0.0 mm 0.00 in0.0 mm 0.01 in0.3 mm
11:56 AM 59.7°F15.4°C 59.4°F15.2°C 99% 4.3 mph S6.9 kmh S 14.0 mph22.5 kmh 29.88 in1011.9 mb 0.00 in0.0 mm 0.00 in0.0 mm 0.01 in0.3 mm
12:01 PM 59.8°F15.4°C 59.5°F15.3°C 99% 4.1 mph S6.6 kmh S 14.0 mph22.5 kmh 29.88 in1011.9 mb 0.00 in0.0 mm 0.00 in0.0 mm 0.01 in0.3 mm
12:06 PM 59.9°F15.5°C 59.6°F15.3°C 99% 5.7 mph S9.2 kmh S 14.0 mph22.5 kmh 29.89 in1012.2 mb 0.00 in0.0 mm 0.00 in0.0 mm 0.01 in0.3 mm
12:11 PM 60.0°F15.6°C 59.7°F15.4°C 99% 4.3 mph S6.9 kmh S 14.0 mph22.5 kmh 29.88 in1011.9 mb 0.00 in0.0 mm 0.00 in0.0 mm 0.01 in0.3 mm
12:16 PM 60.1°F15.6°C 59.8°F15.4°C 99% 5.8 mph SSW9.3 kmh SSW 14.0 mph22.5 kmh 29.88 in1011.9 mb 0.00 in0.0 mm 0.00 in0.0 mm 0.01 in0.3 mm
12:21 PM 60.2°F15.7°C 59.9°F15.5°C 99% 6.3 mph S10.1 kmh S 14.0 mph22.5 kmh 29.88 in1011.9 mb 0.00 in0.0 mm 0.00 in0.0 mm 0.01 in0.3 mm
12:26 PM 60.3°F15.7°C 60.0°F15.6°C 99% 5.7 mph SSW9.2 kmh SSW 13.0 mph20.9 kmh 29.87 in1011.5 mb 0.00 in0.0 mm 0.00 in0.0 mm 0.01 in0.3 mm
12:31 PM 60.3°F15.7°C 60.0°F15.6°C 99% 4.7 mph S7.6 kmh S 13.0 mph20.9 kmh 29.87 in1011.5 mb 0.00 in0.0 mm 0.00 in0.0 mm 0.01 in0.3 mm
12:36 PM 60.4°F15.8°C 60.1°F15.6°C 99% 4.1 mph S6.6 kmh S 13.0 mph20.9 kmh 29.86 in1011.2 mb 0.00 in0.0 mm 0.00 in0.0 mm 0.01 in0.3 mm
12:41 PM 60.5°F15.8°C 60.2°F15.7°C 99% 3.3 mph S5.3 kmh S 13.0 mph20.9 kmh 29.86 in1011.2 mb 0.00 in0.0 mm 0.00 in0.0 mm 0.01 in0.3 mm
12:46 PM 60.6°F15.9°C 60.3°F15.7°C 99% 3.1 mph S5.0 kmh S 11.0 mph17.7 kmh 29.85 in1010.8 mb 0.00 in0.0 mm 0.00 in0.0 mm 0.01 in0.3 mm
12:51 PM 60.7°F15.9°C 60.4°F15.8°C 99% 3.6 mph S5.8 kmh S 11.0 mph17.7 kmh 29.84 in1010.5 mb 0.00 in0.0 mm 0.00 in0.0 mm 0.01 in0.3 mm
12:56 PM 60.8°F16.0°C 60.5°F15.8°C 99% 3.5 mph S5.6 kmh S 11.0 mph17.7 kmh 29.83 in1010.2 mb 0.00 in0.0 mm 0.00 in0.0 mm 0.01 in0.3 mm
01:01 PM 61.0°F16.1°C 60.7°F15.9°C 99% 4.2 mph S6.8 kmh S 11.0 mph17.7 kmh 29.83 in1010.2 mb 0.00 in0.0 mm 0.00 in0.0 mm 0.01 in0.3 mm
01:06 PM 61.3°F16.3°C 61.0°F16.1°C 99% 4.4 mph S7.1 kmh S 11.0 mph17.7 kmh 29.82 in1009.8 mb 0.00 in0.0 mm 0.00 in0.0 mm 0.01 in0.3 mm
01:11 PM 61.5°F16.4°C 61.2°F16.2°C 99% 3.4 mph S5.5 kmh S 11.0 mph17.7 kmh 29.81 in1009.5 mb 0.00 in0.0 mm 0.00 in0.0 mm 0.01 in0.3 mm
01:16 PM 61.6°F16.4°C 61.0°F16.1°C 98% 6.1 mph S9.8 kmh S 13.0 mph20.9 kmh 29.81 in1009.5 mb 0.00 in0.0 mm 0.00 in0.0 mm 0.01 in0.3 mm
01:21 PM 61.7°F16.5°C 61.1°F16.2°C 98% 3.5 mph S5.6 kmh S 15.0 mph24.1 kmh 29.80 in1009.1 mb 0.00 in0.0 mm 0.00 in0.0 mm 0.01 in0.3 mm
01:26 PM 62.1°F16.7°C 61.5°F16.4°C 98% 4.7 mph SSW7.6 kmh SSW 15.0 mph24.1 kmh 29.80 in1009.1 mb 0.00 in0.0 mm 0.00 in0.0 mm 0.01 in0.3 mm
01:31 PM 62.3°F16.8°C 61.7°F16.5°C 98% 6.3 mph S10.1 kmh S 15.0 mph24.1 kmh 29.79 in1008.8 mb 0.00 in0.0 mm 0.00 in0.0 mm 0.01 in0.3 mm
01:36 PM 62.7°F17.1°C 62.1°F16.7°C 98% 5.9 mph S9.5 kmh S 15.0 mph24.1 kmh 29.78 in1008.5 mb 0.00 in0.0 mm 0.00 in0.0 mm 0.01 in0.3 mm
01:41 PM 63.4°F17.4°C 61.3°F16.3°C 93% 6.6 mph S10.6 kmh S 19.0 mph30.6 kmh 29.78 in1008.5 mb 0.00 in0.0 mm 0.00 in0.0 mm 0.01 in0.3 mm
01:46 PM 64.1°F17.8°C 61.1°F16.2°C 90% 5.1 mph S8.2 kmh S 19.0 mph30.6 kmh 29.77 in1008.1 mb 0.00 in0.0 mm 0.00 in0.0 mm 0.01 in0.3 mm
01:51 PM 64.3°F17.9°C 60.3°F15.7°C 87% 4.7 mph SSE7.6 kmh SSE 19.0 mph30.6 kmh 29.76 in1007.8 mb 0.00 in0.0 mm 0.00 in0.0 mm 0.01 in0.3 mm
01:56 PM 64.5°F18.1°C 59.9°F15.5°C 85% 7.2 mph S11.6 kmh S 19.0 mph30.6 kmh 29.76 in1007.8 mb 0.00 in0.0 mm 0.00 in0.0 mm 0.01 in0.3 mm
02:01 PM 64.7°F18.2°C 59.8°F15.4°C 84% 7.0 mph S11.3 kmh S 16.0 mph25.7 kmh 29.75 in1007.5 mb 0.00 in0.0 mm 0.00 in0.0 mm 0.01 in0.3 mm
02:06 PM 64.9°F18.3°C 59.3°F15.2°C 82% 7.4 mph S11.9 kmh S 18.0 mph29.0 kmh 29.74 in1007.1 mb 0.00 in0.0 mm 0.00 in0.0 mm 0.01 in0.3 mm
02:11 PM 65.1°F18.4°C 59.2°F15.1°C 81% 5.5 mph S8.9 kmh S 18.0 mph29.0 kmh 29.74 in1007.1 mb 0.00 in0.0 mm 0.00 in0.0 mm 0.01 in0.3 mm
02:16 PM 65.3°F18.5°C 59.0°F15.0°C 80% 8.9 mph S14.3 kmh S 22.0 mph35.4 kmh 29.74 in1007.1 mb 0.00 in0.0 mm 0.00 in0.0 mm 0.01 in0.3 mm
02:21 PM 65.5°F18.6°C 59.2°F15.1°C 80% 6.8 mph S10.9 kmh S 22.0 mph35.4 kmh 29.74 in1007.1 mb 0.00 in0.0 mm 0.00 in0.0 mm 0.01 in0.3 mm
02:26 PM 65.6°F18.7°C 59.0°F15.0°C 79% 5.8 mph SSW9.3 kmh SSW 22.0 mph35.4 kmh 29.73 in1006.8 mb 0.00 in0.0 mm 0.00 in0.0 mm 0.01 in0.3 mm
02:31 PM 65.8°F18.8°C 58.8°F14.9°C 78% 6.6 mph S10.6 kmh S 22.0 mph35.4 kmh 29.72 in1006.4 mb 0.00 in0.0 mm 0.00 in0.0 mm 0.01 in0.3 mm
02:36 PM 65.9°F18.8°C 58.9°F14.9°C 78% 6.0 mph S9.7 kmh S 16.0 mph25.7 kmh 29.72 in1006.4 mb 0.00 in0.0 mm 0.00 in0.0 mm 0.01 in0.3 mm
02:41 PM 66.1°F18.9°C 59.1°F15.1°C 78% 6.0 mph SSW9.7 kmh SSW 15.0 mph24.1 kmh 29.72 in1006.4 mb 0.00 in0.0 mm 0.00 in0.0 mm 0.01 in0.3 mm
02:46 PM 66.2°F19.0°C 58.9°F14.9°C 77% 6.9 mph S11.1 kmh S 16.0 mph25.7 kmh 29.71 in1006.1 mb 0.00 in0.0 mm 0.00 in0.0 mm 0.01 in0.3 mm
02:51 PM 66.4°F19.1°C 58.4°F14.7°C 75% 6.9 mph S11.1 kmh S 16.0 mph25.7 kmh 29.71 in1006.1 mb 0.00 in0.0 mm 0.00 in0.0 mm 0.01 in0.3 mm
02:56 PM 66.7°F19.3°C 58.6°F14.8°C 75% 5.9 mph S9.5 kmh S 16.0 mph25.7 kmh 29.71 in1006.1 mb 0.00 in0.0 mm 0.00 in0.0 mm 0.01 in0.3 mm
03:02 PM 67.1°F19.5°C 58.3°F14.6°C 73% 4.4 mph S7.1 kmh S 16.0 mph25.7 kmh 29.71 in1006.1 mb 0.00 in0.0 mm 0.00 in0.0 mm 0.01 in0.3 mm
03:07 PM 67.5°F19.7°C 58.3°F14.6°C 72% 3.3 mph SSE5.3 kmh SSE 16.0 mph25.7 kmh 29.70 in1005.8 mb 0.00 in0.0 mm 0.00 in0.0 mm 0.01 in0.3 mm
03:12 PM 67.8°F19.9°C 57.8°F14.3°C 70% 6.3 mph S10.1 kmh S 16.0 mph25.7 kmh 29.70 in1005.8 mb 0.00 in0.0 mm 0.00 in0.0 mm 0.01 in0.3 mm
03:16 PM 68.0°F20.0°C 57.6°F14.2°C 69% 7.4 mph S11.9 kmh S 16.0 mph25.7 kmh 29.70 in1005.8 mb 0.00 in0.0 mm 0.00 in0.0 mm 0.01 in0.3 mm
03:21 PM 68.1°F20.1°C 56.9°F13.8°C 67% 8.3 mph SSE13.4 kmh SSE 18.0 mph29.0 kmh 29.69 in1005.4 mb 0.00 in0.0 mm 0.00 in0.0 mm 0.01 in0.3 mm
03:27 PM 68.2°F20.1°C 56.6°F13.7°C 66% 5.9 mph S9.5 kmh S 18.0 mph29.0 kmh 29.68 in1005.1 mb 0.00 in0.0 mm 0.00 in0.0 mm 0.01 in0.3 mm
03:31 PM 68.3°F20.2°C 56.3°F13.5°C 65% 9.4 mph S15.1 kmh S 20.0 mph32.2 kmh 29.68 in1005.1 mb 0.00 in0.0 mm 0.00 in0.0 mm 0.01 in0.3 mm
03:36 PM 68.3°F20.2°C 55.8°F13.2°C 64% 10.8 mph SSE17.4 kmh SSE 20.0 mph32.2 kmh 29.68 in1005.1 mb 0.00 in0.0 mm 0.00 in0.0 mm 0.01 in0.3 mm
03:42 PM 68.3°F20.2°C 55.2°F12.9°C 63% 6.1 mph S9.8 kmh S 20.0 mph32.2 kmh 29.68 in1005.1 mb 0.00 in0.0 mm 0.00 in0.0 mm 0.01 in0.3 mm
03:46 PM 68.2°F20.1°C 54.7°F12.6°C 62% 5.8 mph S9.3 kmh S 20.0 mph32.2 kmh 29.68 in1005.1 mb 0.00 in0.0 mm 0.00 in0.0 mm 0.01 in0.3 mm
03:52 PM 68.1°F20.1°C 54.6°F12.6°C 62% 6.5 mph S10.5 kmh S 19.0 mph30.6 kmh 29.68 in1005.1 mb 0.00 in0.0 mm 0.00 in0.0 mm 0.01 in0.3 mm
03:57 PM 67.9°F19.9°C 54.0°F12.2°C 61% 7.7 mph S12.4 kmh S 19.0 mph30.6 kmh 29.67 in1004.7 mb 0.00 in0.0 mm 0.00 in0.0 mm 0.01 in0.3 mm
04:02 PM 67.8°F19.9°C 53.6°F12.0°C 60% 9.1 mph S14.6 kmh S 19.0 mph30.6 kmh 29.67 in1004.7 mb 0.00 in0.0 mm 0.00 in0.0 mm 0.01 in0.3 mm
04:07 PM 67.7°F19.8°C 53.9°F12.2°C 61% 3.6 mph S5.8 kmh S 15.0 mph24.1 kmh 29.66 in1004.4 mb 0.00 in0.0 mm 0.00 in0.0 mm 0.01 in0.3 mm
04:12 PM 67.6°F19.8°C 53.4°F11.9°C 60% 6.4 mph SSW10.3 kmh SSW 15.0 mph24.1 kmh 29.66 in1004.4 mb 0.00 in0.0 mm 0.00 in0.0 mm 0.01 in0.3 mm
04:17 PM 67.5°F19.7°C 53.3°F11.8°C 60% 3.7 mph S6.0 kmh S 15.0 mph24.1 kmh 29.66 in1004.4 mb 0.00 in0.0 mm 0.00 in0.0 mm 0.01 in0.3 mm
04:22 PM 67.4°F19.7°C 53.2°F11.8°C 60% 4.4 mph S7.1 kmh S 11.0 mph17.7 kmh 29.66 in1004.4 mb 0.00 in0.0 mm 0.00 in0.0 mm 0.01 in0.3 mm
04:26 PM 66.8°F19.3°C 53.5°F11.9°C 62% 5.4 mph S8.7 kmh S 11.0 mph17.7 kmh 29.65 in1004.1 mb 0.00 in0.0 mm 0.00 in0.0 mm 0.01 in0.3 mm
04:31 PM 66.2°F19.0°C 53.0°F11.7°C 62% 4.9 mph S7.9 kmh S 11.0 mph17.7 kmh 29.64 in1003.7 mb 0.01 in0.3 mm 0.12 in3.0 mm 0.02 in0.5 mm
04:36 PM 65.8°F18.8°C 52.1°F11.2°C 61% 4.1 mph S6.6 kmh S 12.0 mph19.3 kmh 29.64 in1003.7 mb 0.01 in0.3 mm 0.00 in0.0 mm 0.02 in0.5 mm
04:41 PM 65.9°F18.8°C 51.6°F10.9°C 60% 8.6 mph SSW13.8 kmh SSW 16.0 mph25.7 kmh 29.66 in1004.4 mb 0.01 in0.3 mm 0.00 in0.0 mm 0.02 in0.5 mm
04:46 PM 65.5°F18.6°C 51.9°F11.1°C 61% 8.5 mph SSW13.7 kmh SSW 25.0 mph40.2 kmh 29.66 in1004.4 mb 0.01 in0.3 mm 0.00 in0.0 mm 0.02 in0.5 mm
04:51 PM 64.6°F18.1°C 52.3°F11.3°C 64% 6.1 mph S9.8 kmh S 25.0 mph40.2 kmh 29.65 in1004.1 mb 0.01 in0.3 mm 0.00 in0.0 mm 0.02 in0.5 mm
04:56 PM 63.8°F17.7°C 52.8°F11.6°C 67% 5.0 mph S8.0 kmh S 25.0 mph40.2 kmh 29.64 in1003.7 mb 0.02 in0.5 mm 0.12 in3.0 mm 0.03 in0.8 mm
05:01 PM 63.2°F17.3°C 52.2°F11.2°C 67% 4.6 mph S7.4 kmh S 25.0 mph40.2 kmh 29.63 in1003.4 mb 0.02 in0.5 mm 0.00 in0.0 mm 0.03 in0.8 mm
05:06 PM 63.1°F17.3°C 52.1°F11.2°C 67% 6.4 mph S10.3 kmh S 18.0 mph29.0 kmh 29.63 in1003.4 mb 0.02 in0.5 mm 0.00 in0.0 mm 0.03 in0.8 mm
05:11 PM 63.2°F17.3°C 52.2°F11.2°C 67% 4.5 mph S7.2 kmh S 18.0 mph29.0 kmh 29.63 in1003.4 mb 0.02 in0.5 mm 0.00 in0.0 mm 0.03 in0.8 mm
05:16 PM 62.6°F17.0°C 53.1°F11.7°C 71% 9.3 mph SSW15.0 kmh SSW 23.0 mph37.0 kmh 29.62 in1003.0 mb 0.03 in0.8 mm 0.12 in3.0 mm 0.04 in1.0 mm
05:21 PM 62.0°F16.7°C 53.2°F11.8°C 73% 6.3 mph S10.1 kmh S 23.0 mph37.0 kmh 29.62 in1003.0 mb 0.03 in0.8 mm 0.00 in0.0 mm 0.04 in1.0 mm
05:26 PM 61.8°F16.6°C 53.2°F11.8°C 73% 5.7 mph S9.2 kmh S 23.0 mph37.0 kmh 29.61 in1002.7 mb 0.03 in0.8 mm 0.00 in0.0 mm 0.04 in1.0 mm
05:31 PM 61.7°F16.5°C 53.1°F11.7°C 73% 5.1 mph SSE8.2 kmh SSE 23.0 mph37.0 kmh 29.60 in1002.4 mb 0.02 in0.5 mm 0.00 in0.0 mm 0.04 in1.0 mm
05:36 PM 61.6°F16.4°C 53.0°F11.7°C 73% 5.3 mph SSE8.5 kmh SSE 19.0 mph30.6 kmh 29.60 in1002.4 mb 0.02 in0.5 mm 0.00 in0.0 mm 0.04 in1.0 mm
05:41 PM 61.6°F16.4°C 52.9°F11.6°C 73% 2.5 mph SSE4.0 kmh SSE 14.0 mph22.5 kmh 29.60 in1002.4 mb 0.02 in0.5 mm 0.00 in0.0 mm 0.04 in1.0 mm
05:46 PM 61.9°F16.6°C 52.4°F11.3°C 71% 5.4 mph SSE8.7 kmh SSE 14.0 mph22.5 kmh 29.59 in1002.0 mb 0.02 in0.5 mm 0.00 in0.0 mm 0.04 in1.0 mm
05:51 PM 62.0°F16.7°C 52.5°F11.4°C 71% 5.8 mph SE9.3 kmh SE 12.0 mph19.3 kmh 29.57 in1001.4 mb 0.02 in0.5 mm 0.00 in0.0 mm 0.04 in1.0 mm
05:56 PM 62.2°F16.8°C 52.4°F11.3°C 70% 5.2 mph S8.4 kmh S 18.0 mph29.0 kmh 29.59 in1002.0 mb 0.01 in0.3 mm 0.00 in0.0 mm 0.04 in1.0 mm
06:01 PM 62.0°F16.7°C 53.0°F11.7°C 72% 4.4 mph S7.1 kmh S 18.0 mph29.0 kmh 29.59 in1002.0 mb 0.01 in0.3 mm 0.00 in0.0 mm 0.04 in1.0 mm
06:06 PM 61.9°F16.6°C 52.9°F11.6°C 72% 6.0 mph SSE9.7 kmh SSE 18.0 mph29.0 kmh 29.58 in1001.7 mb 0.01 in0.3 mm 0.00 in0.0 mm 0.04 in1.0 mm
06:11 PM 62.0°F16.7°C 53.0°F11.7°C 72% 4.7 mph S7.6 kmh S 18.0 mph29.0 kmh 29.58 in1001.7 mb 0.01 in0.3 mm 0.00 in0.0 mm 0.04 in1.0 mm
06:16 PM 62.0°F16.7°C 53.0°F11.7°C 72% 4.8 mph SSE7.7 kmh SSE 13.0 mph20.9 kmh 29.57 in1001.4 mb 0.00 in0.0 mm 0.00 in0.0 mm 0.04 in1.0 mm
06:21 PM 62.2°F16.8°C 53.6°F12.0°C 73% 4.7 mph SSE7.6 kmh SSE 13.0 mph20.9 kmh 29.57 in1001.4 mb 0.00 in0.0 mm 0.00 in0.0 mm 0.04 in1.0 mm
06:26 PM 62.5°F16.9°C 53.9°F12.2°C 73% 7.2 mph S11.6 kmh S 18.0 mph29.0 kmh 29.57 in1001.4 mb 0.00 in0.0 mm 0.00 in0.0 mm 0.04 in1.0 mm
06:31 PM 62.9°F17.2°C 55.3°F12.9°C 76% 7.1 mph S11.4 kmh S 18.0 mph29.0 kmh 29.57 in1001.4 mb 0.00 in0.0 mm 0.00 in0.0 mm 0.04 in1.0 mm
06:36 PM 63.2°F17.3°C 56.3°F13.5°C 78% 8.4 mph S13.5 kmh S 23.0 mph37.0 kmh 29.57 in1001.4 mb 0.00 in0.0 mm 0.00 in0.0 mm 0.04 in1.0 mm
06:41 PM 63.3°F17.4°C 57.4°F14.1°C 81% 9.2 mph S14.8 kmh S 23.0 mph37.0 kmh 29.57 in1001.4 mb 0.01 in0.3 mm 0.12 in3.0 mm 0.05 in1.3 mm
06:46 PM 63.0°F17.2°C 58.1°F14.5°C 84% 10.5 mph S16.9 kmh S 25.0 mph40.2 kmh 29.56 in1001.0 mb 0.01 in0.3 mm 0.00 in0.0 mm 0.05 in1.3 mm
06:51 PM 62.4°F16.9°C 58.5°F14.7°C 87% 11.5 mph S18.5 kmh S 25.0 mph40.2 kmh 29.57 in1001.4 mb 0.03 in0.8 mm 0.24 in6.1 mm 0.07 in1.8 mm
06:56 PM 61.8°F16.6°C 58.5°F14.7°C 89% 6.5 mph S10.5 kmh S 25.0 mph40.2 kmh 29.57 in1001.4 mb 0.05 in1.3 mm 0.24 in6.1 mm 0.09 in2.3 mm
07:01 PM 61.4°F16.3°C 58.7°F14.8°C 91% 7.9 mph SSE12.7 kmh SSE 25.0 mph40.2 kmh 29.56 in1001.0 mb 0.06 in1.5 mm 0.01 in0.3 mm 0.10 in2.5 mm
07:06 PM 61.2°F16.2°C 58.6°F14.8°C 91% 6.4 mph SSE10.3 kmh SSE 22.0 mph35.4 kmh 29.55 in1000.7 mb 0.08 in2.0 mm 0.24 in6.1 mm 0.12 in3.0 mm
07:11 PM 61.0°F16.1°C 58.7°F14.8°C 92% 8.5 mph SSE13.7 kmh SSE 22.0 mph35.4 kmh 29.52 in999.7 mb 0.10 in2.5 mm 0.24 in6.1 mm 0.14 in3.6 mm
07:16 PM 60.8°F16.0°C 58.7°F14.8°C 93% 8.1 mph SSE13.0 kmh SSE 22.0 mph35.4 kmh 29.52 in999.7 mb 0.15 in3.8 mm 0.60 in15.2 mm 0.19 in4.8 mm
07:21 PM 60.8°F16.0°C 59.0°F15.0°C 94% 8.8 mph WSW14.2 kmh WSW 18.0 mph29.0 kmh 29.55 in1000.7 mb 0.20 in5.1 mm 0.60 in15.2 mm 0.24 in6.1 mm
07:26 PM 60.4°F15.8°C 58.6°F14.8°C 94% 15.3 mph W24.6 kmh W 30.0 mph48.3 kmh 29.61 in1002.7 mb 0.42 in10.7 mm 2.64 in67.1 mm 0.46 in11.7 mm
07:31 PM 59.4°F15.2°C 57.9°F14.4°C 95% 16.3 mph SW26.2 kmh SW 33.0 mph53.1 kmh 29.58 in1001.7 mb 0.68 in17.3 mm 3.12 in79.2 mm 0.72 in18.3 mm
07:36 PM 59.8°F15.4°C 58.9°F14.9°C 97% 7.4 mph WSW11.9 kmh WSW 33.0 mph53.1 kmh 29.58 in1001.7 mb 0.72 in18.3 mm 0.48 in12.2 mm 0.76 in19.3 mm
07:41 PM 60.1°F15.6°C 59.2°F15.1°C 97% 10.8 mph WSW17.4 kmh WSW 33.0 mph53.1 kmh 29.58 in1001.7 mb 0.75 in19.1 mm 0.36 in9.1 mm 0.80 in20.3 mm
07:47 PM 60.2°F15.7°C 59.3°F15.2°C 97% 5.8 mph SW9.3 kmh SW 32.0 mph51.5 kmh 29.57 in1001.4 mb 0.76 in19.3 mm 0.10 in2.5 mm 0.82 in20.8 mm
07:52 PM 60.2°F15.7°C 59.3°F15.2°C 97% 6.8 mph WSW10.9 kmh WSW 21.0 mph33.8 kmh 29.56 in1001.0 mb 0.78 in19.8 mm 0.24 in6.1 mm 0.85 in21.6 mm
07:57 PM 60.2°F15.7°C 59.3°F15.2°C 97% 4.7 mph SW7.6 kmh SW 21.0 mph33.8 kmh 29.57 in1001.4 mb 0.79 in20.1 mm 0.12 in3.0 mm 0.88 in22.4 mm
08:02 PM 60.1°F15.6°C 59.2°F15.1°C 97% 3.8 mph WSW6.1 kmh WSW 18.0 mph29.0 kmh 29.57 in1001.4 mb 0.80 in20.3 mm 0.01 in0.3 mm 0.91 in23.1 mm
08:07 PM 60.0°F15.6°C 59.1°F15.1°C 97% 5.7 mph WSW9.2 kmh WSW 17.0 mph27.4 kmh 29.58 in1001.7 mb 0.79 in20.1 mm 0.00 in0.0 mm 0.92 in23.4 mm
08:13 PM 60.0°F15.6°C 59.1°F15.1°C 97% 9.7 mph WSW15.6 kmh WSW 22.0 mph35.4 kmh 29.58 in1001.7 mb 0.78 in19.8 mm 0.00 in0.0 mm 0.93 in23.6 mm
08:18 PM 59.9°F15.5°C 59.0°F15.0°C 97% 6.8 mph SW10.9 kmh SW 22.0 mph35.4 kmh 29.57 in1001.4 mb 0.73 in18.5 mm 0.00 in0.0 mm 0.94 in23.9 mm
08:23 PM 59.7°F15.4°C 58.8°F14.9°C 97% 5.1 mph WSW8.2 kmh WSW 22.0 mph35.4 kmh 29.57 in1001.4 mb 0.68 in17.3 mm 0.00 in0.0 mm 0.94 in23.9 mm
08:28 PM 59.2°F15.1°C 58.3°F14.6°C 97% 1.0 mph WNW1.6 kmh WNW 23.0 mph37.0 kmh 29.58 in1001.7 mb 0.30 in7.6 mm 0.00 in0.0 mm 0.95 in24.1 mm
08:33 PM 58.8°F14.9°C 57.9°F14.4°C 97% 3.4 mph SW5.5 kmh SW 23.0 mph37.0 kmh 29.58 in1001.7 mb 0.20 in5.1 mm 0.00 in0.0 mm 0.95 in24.1 mm
08:38 PM 58.5°F14.7°C 57.7°F14.3°C 97% 6.3 mph SW10.1 kmh SW 23.0 mph37.0 kmh 29.58 in1001.7 mb 0.17 in4.3 mm 0.00 in0.0 mm 0.95 in24.1 mm
08:43 PM 58.2°F14.6°C 57.4°F14.1°C 97% 5.1 mph WSW8.2 kmh WSW 23.0 mph37.0 kmh 29.58 in1001.7 mb 0.14 in3.6 mm 0.00 in0.0 mm 0.95 in24.1 mm
08:48 PM 58.0°F14.4°C 57.1°F13.9°C 97% 5.4 mph SW8.7 kmh SW 14.0 mph22.5 kmh 29.57 in1001.4 mb 0.11 in2.8 mm 0.00 in0.0 mm 0.95 in24.1 mm
08:53 PM 58.0°F14.4°C 57.1°F13.9°C 97% 6.0 mph WSW9.7 kmh WSW 14.0 mph22.5 kmh 29.57 in1001.4 mb 0.09 in2.3 mm 0.00 in0.0 mm 0.95 in24.1 mm
08:59 PM 57.9°F14.4°C 57.1°F13.9°C 97% 3.1 mph SW5.0 kmh SW 14.0 mph22.5 kmh 29.57 in1001.4 mb 0.06 in1.5 mm 0.00 in0.0 mm 0.95 in24.1 mm
09:04 PM 57.9°F14.4°C 57.1°F13.9°C 97% 3.4 mph SW5.5 kmh SW 11.0 mph17.7 kmh 29.58 in1001.7 mb 0.04 in1.0 mm 0.00 in0.0 mm 0.95 in24.1 mm
09:08 PM 57.8°F14.3°C 57.0°F13.9°C 97% 3.4 mph SW5.5 kmh SW 9.0 mph14.5 kmh 29.58 in1001.7 mb 0.02 in0.5 mm 0.00 in0.0 mm 0.95 in24.1 mm
09:13 PM 57.8°F14.3°C 56.9°F13.8°C 97% 3.0 mph SW4.8 kmh SW 9.0 mph14.5 kmh 29.58 in1001.7 mb 0.01 in0.3 mm 0.00 in0.0 mm 0.95 in24.1 mm
09:18 PM 57.7°F14.3°C 56.8°F13.8°C 97% 3.5 mph SW5.6 kmh SW 9.0 mph14.5 kmh 29.58 in1001.7 mb 0.01 in0.3 mm 0.00 in0.0 mm 0.95 in24.1 mm
09:24 PM 57.6°F14.2°C 56.7°F13.7°C 97% 2.8 mph SW4.5 kmh SW 9.0 mph14.5 kmh 29.58 in1001.7 mb 0.01 in0.3 mm 0.00 in0.0 mm 0.95 in24.1 mm
09:29 PM 57.6°F14.2°C 56.7°F13.7°C 97% 4.3 mph SW6.9 kmh SW 10.0 mph16.1 kmh 29.59 in1002.0 mb 0.00 in0.0 mm 0.00 in0.0 mm 0.95 in24.1 mm
09:34 PM 57.5°F14.2°C 56.6°F13.7°C 97% 4.1 mph SW6.6 kmh SW 10.0 mph16.1 kmh 29.59 in1002.0 mb 0.00 in0.0 mm 0.00 in0.0 mm 0.95 in24.1 mm
09:39 PM 57.5°F14.2°C 56.9°F13.8°C 98% 4.3 mph SW6.9 kmh SW 10.0 mph16.1 kmh 29.59 in1002.0 mb 0.00 in0.0 mm 0.00 in0.0 mm 0.95 in24.1 mm
09:43 PM 57.5°F14.2°C 56.9°F13.8°C 98% 4.2 mph WSW6.8 kmh WSW 11.0 mph17.7 kmh 29.60 in1002.4 mb 0.00 in0.0 mm 0.00 in0.0 mm 0.95 in24.1 mm
09:49 PM 57.4°F14.1°C 56.8°F13.8°C 98% 5.0 mph WSW8.0 kmh WSW 11.0 mph17.7 kmh 29.60 in1002.4 mb 0.00 in0.0 mm 0.00 in0.0 mm 0.95 in24.1 mm
09:54 PM 57.4°F14.1°C 56.8°F13.8°C 98% 2.6 mph WSW4.2 kmh WSW 11.0 mph17.7 kmh 29.60 in1002.4 mb 0.00 in0.0 mm 0.00 in0.0 mm 0.95 in24.1 mm
09:59 PM 57.3°F14.1°C 56.7°F13.7°C 98% 6.3 mph WSW10.1 kmh WSW 14.0 mph22.5 kmh 29.60 in1002.4 mb 0.00 in0.0 mm 0.00 in0.0 mm 0.95 in24.1 mm
10:04 PM 57.2°F14.0°C 56.6°F13.7°C 98% 3.6 mph W5.8 kmh W 14.0 mph22.5 kmh 29.60 in1002.4 mb 0.00 in0.0 mm 0.00 in0.0 mm 0.95 in24.1 mm
10:09 PM 57.1°F13.9°C 56.2°F13.4°C 97% 3.6 mph WSW5.8 kmh WSW 14.0 mph22.5 kmh 29.61 in1002.7 mb 0.00 in0.0 mm 0.00 in0.0 mm 0.95 in24.1 mm
10:14 PM 56.8°F13.8°C 55.9°F13.3°C 97% 5.5 mph WSW8.9 kmh WSW 15.0 mph24.1 kmh 29.60 in1002.4 mb 0.00 in0.0 mm 0.00 in0.0 mm 0.95 in24.1 mm
10:19 PM 56.6°F13.7°C 55.7°F13.2°C 97% 7.2 mph WSW11.6 kmh WSW 16.0 mph25.7 kmh 29.60 in1002.4 mb 0.00 in0.0 mm 0.00 in0.0 mm 0.95 in24.1 mm
10:24 PM 56.5°F13.6°C 55.6°F13.1°C 97% 7.1 mph W11.4 kmh W 16.0 mph25.7 kmh 29.60 in1002.4 mb 0.00 in0.0 mm 0.00 in0.0 mm 0.95 in24.1 mm
10:29 PM 56.5°F13.6°C 55.7°F13.2°C 97% 6.7 mph W10.8 kmh W 16.0 mph25.7 kmh 29.60 in1002.4 mb 0.00 in0.0 mm 0.00 in0.0 mm 0.95 in24.1 mm
10:34 PM 56.7°F13.7°C 55.3°F12.9°C 95% 4.8 mph WSW7.7 kmh WSW 16.0 mph25.7 kmh 29.61 in1002.7 mb 0.00 in0.0 mm 0.00 in0.0 mm 0.95 in24.1 mm
10:39 PM 56.9°F13.8°C 54.9°F12.7°C 93% 3.8 mph WSW6.1 kmh WSW 15.0 mph24.1 kmh 29.61 in1002.7 mb 0.00 in0.0 mm 0.00 in0.0 mm 0.95 in24.1 mm
10:44 PM 56.9°F13.8°C 54.6°F12.6°C 92% 3.3 mph WSW5.3 kmh WSW 15.0 mph24.1 kmh 29.61 in1002.7 mb 0.00 in0.0 mm 0.00 in0.0 mm 0.95 in24.1 mm
10:49 PM 56.9°F13.8°C 54.3°F12.4°C 91% 3.9 mph W6.3 kmh W 15.0 mph24.1 kmh 29.61 in1002.7 mb 0.00 in0.0 mm 0.00 in0.0 mm 0.95 in24.1 mm
10:54 PM 56.9°F13.8°C 54.3°F12.4°C 91% 4.5 mph WSW7.2 kmh WSW 15.0 mph24.1 kmh 29.62 in1003.0 mb 0.00 in0.0 mm 0.00 in0.0 mm 0.95 in24.1 mm
10:59 PM 56.9°F13.8°C 54.0°F12.2°C 90% 5.2 mph WSW8.4 kmh WSW 15.0 mph24.1 kmh 29.62 in1003.0 mb 0.00 in0.0 mm 0.00 in0.0 mm 0.95 in24.1 mm
11:04 PM 56.9°F13.8°C 54.0°F12.2°C 90% 3.8 mph W6.1 kmh W 15.0 mph24.1 kmh 29.62 in1003.0 mb 0.00 in0.0 mm 0.00 in0.0 mm 0.95 in24.1 mm
11:09 PM 56.8°F13.8°C 53.9°F12.2°C 90% 2.9 mph WSW4.7 kmh WSW 13.0 mph20.9 kmh 29.62 in1003.0 mb 0.00 in0.0 mm 0.00 in0.0 mm 0.95 in24.1 mm
11:14 PM 56.7°F13.7°C 53.8°F12.1°C 90% 4.7 mph WSW7.6 kmh WSW 13.0 mph20.9 kmh 29.62 in1003.0 mb 0.00 in0.0 mm 0.00 in0.0 mm 0.95 in24.1 mm
11:19 PM 56.6°F13.7°C 53.7°F12.1°C 90% 3.0 mph WSW4.8 kmh WSW 13.0 mph20.9 kmh 29.62 in1003.0 mb 0.00 in0.0 mm 0.00 in0.0 mm 0.95 in24.1 mm
11:24 PM 56.5°F13.6°C 53.6°F12.0°C 90% 2.4 mph W3.9 kmh W 13.0 mph20.9 kmh 29.61 in1002.7 mb 0.00 in0.0 mm 0.00 in0.0 mm 0.95 in24.1 mm
11:29 PM 56.4°F13.6°C 53.5°F11.9°C 90% 5.3 mph WSW8.5 kmh WSW 11.0 mph17.7 kmh 29.62 in1003.0 mb 0.00 in0.0 mm 0.00 in0.0 mm 0.95 in24.1 mm
11:34 PM 56.4°F13.6°C 53.5°F11.9°C 90% 4.2 mph W6.8 kmh W 11.0 mph17.7 kmh 29.61 in1002.7 mb 0.00 in0.0 mm 0.00 in0.0 mm 0.95 in24.1 mm
11:39 PM 56.4°F13.6°C 53.5°F11.9°C 90% 5.2 mph WSW8.4 kmh WSW 11.0 mph17.7 kmh 29.61 in1002.7 mb 0.00 in0.0 mm 0.00 in0.0 mm 0.95 in24.1 mm
11:44 PM 56.4°F13.6°C 53.5°F11.9°C 90% 3.3 mph WSW5.3 kmh WSW 11.0 mph17.7 kmh 29.61 in1002.7 mb 0.00 in0.0 mm 0.00 in0.0 mm 0.95 in24.1 mm
11:49 PM 56.4°F13.6°C 53.8°F12.1°C 91% 4.4 mph W7.1 kmh W 11.0 mph17.7 kmh 29.61 in1002.7 mb 0.00 in0.0 mm 0.00 in0.0 mm 0.95 in24.1 mm
11:54 PM 56.3°F13.5°C 53.7°F12.1°C 91% 2.9 mph WSW4.7 kmh WSW 11.0 mph17.7 kmh 29.61 in1002.7 mb 0.00 in0.0 mm 0.00 in0.0 mm 0.95 in24.1 mm
11:59 PM 56.3°F13.5°C 53.7°F12.1°C 91% 2.0 mph WSW3.2 kmh WSW 11.0 mph17.7 kmh 29.61 in1002.7 mb 0.00 in0.0 mm 0.00 in0.0 mm 0.95 in24.1 mm